Terminal Aerodrome Forecast
Issued by NWS

Home | Current Version | Previous Version | Text Only | Print | Product List | Glossary On
Versions: 1 2 3 4 5 6 7 8 9 10 11 12 13 14 15
000
FTAK31 PAJN 161100
TAFAKT
TAF
PAKT 161140Z 1612/1712 30005KT P6SM VCFG OVC003
      TEMPO 1612/1614 1/4SM FG
     FM161400 VRB02KT 1/4SM FG OVC002
     FM161800 32004KT P6SM VCFG SCT005 BKN025
     FM162100 33006KT P6SM BKN100
     FM170300 VRB03KT P6SM OVC080
     FM171000 00000KT P6SM VCFG SCT005 OVC070
      AMD LTD TO CLD VIS AND WIND 1612/1615=

USA.gov is the U.S. government's official web portal to all federal, state and local government web resources and services.